ROKR(METAR)
05/21 16:00
ROKR 210700Z 36015KT 9999 FEW027 FEW030 23/15 Q1008 RMK A2977=
戻る
トップページへ戻る
IMOC Co,.Ltd.